Fjordprinsessen — LJVE — position and weather

sailwx.info

Track history (hours):
 
Tides and Currents Weather Stations Pressure Air Temp Water Temp Dewpoint Dewpoint Depression Visibility Wind Speed Wind Dir Waves Ship Positions

Fjordprinsessen

Last reported at 2018-Feb-25 14:20 UTC. Time now 2018-Feb-25 15:16 UTC.
Position N 66°54' E 013°32'.

Length 30 m; draft 2 m.

Type: High speed craft. MMSI: 259604000.

Date/timePositionNaut miles runAvg speedWind from/ knotsBaromVisibWave heightAir tempDewpointWater temp
2018-Feb-25 14:20N 66°54' E 013°32'411.2
2018-Feb-25 14:00N 66°57' E 013°29'1631.8
2018-Feb-25 13:31N 67°08' E 013°58'1325.5
2018-Feb-25 13:00N 67°17' E 014°21'0 0.7
2018-Feb-25 12:29N 67°17' E 014°22'0 0.0
2018-Feb-25 11:59N 67°17' E 014°22'0 0.0
2018-Feb-25 11:29N 67°17' E 014°22'0 0.0
2018-Feb-25 10:59N 67°17' E 014°22'0 0.0
2018-Feb-25 10:29N 67°17' E 014°22'0 0.0
2018-Feb-25 09:59N 67°17' E 014°22'0 0.0
2018-Feb-25 09:29N 67°17' E 014°22'0 0.0
2018-Feb-25 08:59N 67°17' E 014°22'0 0.0
2018-Feb-25 08:29N 67°17' E 014°22'0 0.0
2018-Feb-25 07:59N 67°17' E 014°22'0 0.0
2018-Feb-25 07:29N 67°17' E 014°22'0 0.0
2018-Feb-25 06:59N 67°17' E 014°22'0 0.0
2018-Feb-25 06:29N 67°17' E 014°22'0 0.0
2018-Feb-25 05:59N 67°17' E 014°22'0 0.0
2018-Feb-25 05:29N 67°17' E 014°22'0 0.0
2018-Feb-25 04:59N 67°17' E 014°22'0 0.0
2018-Feb-25 04:29N 67°17' E 014°22'0 0.0
2018-Feb-25 03:59N 67°17' E 014°22'0 0.0
2018-Feb-25 03:29N 67°17' E 014°22'0 0.0
2018-Feb-25 02:59N 67°17' E 014°22'0 0.0
2018-Feb-25 02:29N 67°17' E 014°22'0 0.0
2018-Feb-25 01:59N 67°17' E 014°22'0 0.0
2018-Feb-25 01:29N 67°17' E 014°22'0 0.0
2018-Feb-25 00:59N 67°17' E 014°22'0 0.0
2018-Feb-25 00:29N 67°17' E 014°22'0 0.0
2018-Feb-24 23:59N 67°17' E 014°22'0 0.0
2018-Feb-24 23:29N 67°17' E 014°22'0 0.0
2018-Feb-24 22:59N 67°17' E 014°22'0 0.0
2018-Feb-24 22:29N 67°17' E 014°22'0 0.0
2018-Feb-24 21:59N 67°17' E 014°22'0 0.0
2018-Feb-24 21:29N 67°17' E 014°22'0 0.0
2018-Feb-24 20:59N 67°17' E 014°22'0 0.0
2018-Feb-24 20:29N 67°17' E 014°22'0 0.0
2018-Feb-24 19:59N 67°17' E 014°22'0 0.0
2018-Feb-24 19:29N 67°17' E 014°22'0 0.0
2018-Feb-24 18:56N 67°17' E 014°22'0 0.0
2018-Feb-24 18:29N 67°17' E 014°22'0 0.0
2018-Feb-24 17:59N 67°17' E 014°22'0 0.0
2018-Feb-24 17:29N 67°17' E 014°22'2 4.2
2018-Feb-24 17:00N 67°19' E 014°21'1223.4
2018-Feb-24 16:31N 67°24' E 013°54'714.7
2018-Feb-24 16:00N 67°24' E 014°13'815.3
2018-Feb-24 15:30N 67°17' E 014°22'713.3
2018-Feb-24 15:00N 67°14' E 014°07'917.7
2018-Feb-24 14:30N 67°10' E 013°47'713.6
2018-Feb-24 14:00N 67°07' E 014°03'1020.6
2018-Feb-24 13:30N 67°16' E 014°18'2 4.1
2018-Feb-24 13:00N 67°17' E 014°22'0 0.0
2018-Feb-24 12:30N 67°17' E 014°22'0 0.0
2018-Feb-24 12:00N 67°17' E 014°22'0 0.0
2018-Feb-24 11:30N 67°17' E 014°22'0 0.0
2018-Feb-24 11:00N 67°17' E 014°22'0 0.0
2018-Feb-24 10:30N 67°17' E 014°22'815.3
2018-Feb-24 10:00N 67°24' E 014°13'713.5
2018-Feb-24 09:28N 67°24' E 013°54'716.0
2018-Feb-24 09:00N 67°18' E 013°43'1223.9
2018-Feb-24 08:31N 67°17' E 014°14'3 6.1
2018-Feb-24 08:00N 67°14' E 014°13'816.4
2018-Feb-24 07:30N 67°08' E 013°58'5 9.7
2018-Feb-24 07:00N 67°10' E 013°48'1428.1
2018-Feb-24 06:31N 67°17' E 014°20'1 2.0
2018-Feb-24 06:00N 67°17' E 014°22'0 0.0
2018-Feb-24 05:30N 67°17' E 014°22'0 0.0
2018-Feb-24 05:00N 67°17' E 014°22'0 0.0
2018-Feb-24 04:30N 67°17' E 014°22'0 0.0
2018-Feb-24 04:00N 67°17' E 014°22'0 0.0
2018-Feb-24 03:30N 67°17' E 014°22'0 0.0
2018-Feb-24 03:00N 67°17' E 014°22'0 0.0
2018-Feb-24 02:30N 67°17' E 014°22'0 0.0
2018-Feb-24 02:00N 67°17' E 014°22'0 0.0
2018-Feb-24 01:30N 67°17' E 014°22'0 0.0
2018-Feb-24 01:00N 67°17' E 014°22'0 0.0
2018-Feb-24 00:30N 67°17' E 014°22'0 0.0
2018-Feb-24 00:00N 67°17' E 014°22'0 0.0
2018-Feb-23 23:30N 67°17' E 014°22'0 0.0
2018-Feb-23 23:00N 67°17' E 014°22'0 0.0
2018-Feb-23 22:30N 67°17' E 014°22'0 0.0
2018-Feb-23 22:00N 67°17' E 014°22'0 0.0
2018-Feb-23 21:30N 67°17' E 014°22'0 0.0
2018-Feb-23 21:00N 67°17' E 014°22'0 0.0
2018-Feb-23 20:30N 67°17' E 014°22'0 0.0
2018-Feb-23 20:00N 67°17' E 014°22'0 0.0
2018-Feb-23 19:30N 67°17' E 014°22'0 0.0
2018-Feb-23 19:00N 67°17' E 014°22'0 0.0
2018-Feb-23 18:30N 67°17' E 014°22'0 0.0
2018-Feb-23 18:00N 67°17' E 014°22'0 0.0
2018-Feb-23 17:30N 67°17' E 014°22'1 1.7
2018-Feb-23 17:00N 67°17' E 014°20'1427.3
2018-Feb-23 16:30N 67°19' E 013°45'713.2
2018-Feb-23 16:00N 67°24' E 013°54'713.8
2018-Feb-23 15:30N 67°24' E 014°12'816.5
2018-Feb-23 15:00N 67°17' E 014°22'0 0.0
2018-Feb-23 14:30N 67°17' E 014°22'0 0.0
2018-Feb-23 14:00N 67°17' E 014°22'713.6
2018-Feb-23 13:31N 67°23' E 014°13'714.8
2018-Feb-23 13:00N 67°24' E 013°54'816.0
2018-Feb-23 12:30N 67°23' E 014°15'713.9
2018-Feb-23 12:00N 67°17' E 014°22'0 0.1
2018-Feb-23 11:30N 67°17' E 014°22'0 0.8
2018-Feb-23 11:00N 67°17' E 014°23'0 0.7
2018-Feb-23 10:28N 67°17' E 014°22'0 0.0
2018-Feb-23 09:58N 67°17' E 014°22'0 0.0
2018-Feb-23 09:28N 67°17' E 014°22'0 0.0
2018-Feb-23 08:58N 67°17' E 014°22'0 0.0
2018-Feb-23 08:28N 67°17' E 014°22'0 0.0
2018-Feb-23 07:58N 67°17' E 014°22'0 0.0
2018-Feb-23 07:28N 67°17' E 014°22'0 0.0
2018-Feb-23 06:58N 67°17' E 014°22'0 0.0
2018-Feb-23 06:28N 67°17' E 014°22'1 1.1
2018-Feb-23 06:00N 67°17' E 014°21'1223.8
2018-Feb-23 05:30N 67°07' E 014°03'3 6.6
2018-Feb-23 05:01N 67°11' E 014°05'918.7
2018-Feb-23 04:30N 67°17' E 014°22'0 0.0
2018-Feb-23 04:00N 67°17' E 014°22'0 0.0
2018-Feb-23 03:30N 67°17' E 014°22'0 0.0
2018-Feb-23 03:00N 67°17' E 014°22'0 0.0
2018-Feb-23 02:30N 67°17' E 014°22'0 0.0
2018-Feb-23 02:01N 67°17' E 014°22'0 0.0
2018-Feb-23 01:30N 67°17' E 014°22'0 0.0
2018-Feb-23 01:00N 67°17' E 014°22'0 0.0
2018-Feb-23 00:30N 67°17' E 014°22'0 0.0
2018-Feb-23 00:01N 67°17' E 014°22'0 0.0
2018-Feb-22 23:30N 67°17' E 014°22'0 0.0
2018-Feb-22 23:00N 67°17' E 014°22'0 0.0
2018-Feb-22 22:30N 67°17' E 014°22'0 0.0
2018-Feb-22 22:01N 67°17' E 014°22'0 0.0
2018-Feb-22 21:30N 67°17' E 014°22'0 0.0
2018-Feb-22 21:00N 67°17' E 014°22'1021.0
2018-Feb-22 20:30N 67°12' E 013°59'4 8.2
2018-Feb-22 20:00N 67°09' E 013°52'4 8.0
2018-Feb-22 19:31N 67°07' E 014°02'1224.8
2018-Feb-22 19:01N 67°17' E 014°22'0 0.0
2018-Feb-22 18:28N 67°17' E 014°22'0 0.0
2018-Feb-22 17:58N 67°17' E 014°22'0 0.4
2018-Feb-22 17:30N 67°17' E 014°23'5 9.1
2018-Feb-22 17:00N 67°21' E 014°28'  
2018-Feb-20 07:04N 67°36' E 014°37'228.3
2018-Feb-20 07:00N 67°34' E 014°35'1428.3
2018-Feb-20 06:31N 67°21' E 014°24'4 8.3
2018-Feb-20 06:01N 67°17' E 014°21'1224.1
2018-Feb-20 05:30N 67°07' E 014°03'5 9.7
2018-Feb-20 05:01N 67°12' E 014°08'815.4
2018-Feb-20 04:30N 67°17' E 014°22'0 0.0
2018-Feb-20 03:59N 67°17' E 014°22'0 0.0
2018-Feb-20 03:29N 67°17' E 014°22'0 0.0
2018-Feb-20 02:59N 67°17' E 014°22'0 0.0
2018-Feb-20 02:29N 67°17' E 014°22'0 0.0
2018-Feb-20 01:59N 67°17' E 014°22'0 0.0
2018-Feb-20 01:29N 67°17' E 014°22'0 0.0
2018-Feb-20 00:59N 67°17' E 014°22'0 0.0
2018-Feb-20 00:29N 67°17' E 014°22'0 0.0
2018-Feb-19 23:59N 67°17' E 014°22'0 0.0
2018-Feb-19 23:29N 67°17' E 014°22'0 0.0
2018-Feb-19 22:59N 67°17' E 014°22'0 0.0
2018-Feb-19 22:29N 67°17' E 014°22'0 0.0
2018-Feb-19 21:59N 67°17' E 014°22'0 0.0
2018-Feb-19 21:29N 67°17' E 014°22'0 0.0
2018-Feb-19 20:59N 67°17' E 014°22'0 0.0
2018-Feb-19 20:29N 67°17' E 014°22'0 0.0
2018-Feb-19 19:59N 67°17' E 014°22'0 0.0
2018-Feb-19 19:29N 67°17' E 014°22'0 0.0
2018-Feb-19 18:59N 67°17' E 014°22'0 0.0
2018-Feb-19 18:29N 67°17' E 014°22'0 0.0
2018-Feb-19 17:59N 67°17' E 014°22'0 0.0
2018-Feb-19 17:29N 67°17' E 014°22'2 4.5
2018-Feb-19 17:00N 67°17' E 014°17'1020.1
2018-Feb-19 16:30N 67°13' E 013°52'510.4
2018-Feb-19 16:01N 67°08' E 013°50'5 9.1
2018-Feb-19 15:31N 67°08' E 014°02'1224.2
2018-Feb-19 15:00N 67°17' E 014°22'0 0.0
2018-Feb-19 14:28N 67°17' E 014°22'0 0.9
2018-Feb-19 14:01N 67°17' E 014°23'0 0.8
2018-Feb-19 13:30N 67°17' E 014°22'0 0.0
2018-Feb-19 13:00N 67°17' E 014°22'0 0.0
2018-Feb-19 12:30N 67°17' E 014°22'0 0.0
2018-Feb-19 12:00N 67°17' E 014°22'0 0.0
2018-Feb-19 11:30N 67°17' E 014°22'0 0.0
2018-Feb-19 11:00N 67°17' E 014°22'2 4.9
2018-Feb-19 10:31N 67°16' E 014°17'1224.1
2018-Feb-19 10:00N 67°06' E 013°57'2916.6
2018-Feb-19 08:14N 66°43' E 013°12'311.0
2018-Feb-19 07:56N 66°40' E 013°08'815.3
2018-Feb-19 07:25N 66°33' E 012°58'716.4
2018-Feb-19 07:00N 66°27' E 012°50'1020.2
2018-Feb-19 06:31N 66°17' E 012°54'1018.7
2018-Feb-19 05:58N 66°07' E 012°47'1 0.1
2018-Feb-18 19:50N 66°07' E 012°45'823.1
2018-Feb-18 19:28N 66°12' E 013°00'12 4.9
2018-Feb-18 17:02N 66°04' E 012°39'428.6
2018-Feb-18 16:55N 66°06' E 012°45'1019.3
2018-Feb-18 16:24N 66°16' E 012°55'818.6
2018-Feb-18 15:57N 66°24' E 012°50'818.0
2018-Feb-18 15:30N 66°31' E 013°00'815.4
2018-Feb-18 14:58N 66°39' E 013°02'612.4
2018-Feb-18 14:28N 66°43' E 013°15'1510.9
2018-Feb-18 13:08N 66°56' E 013°27'430.5
2018-Feb-18 13:00N 66°59' E 013°35'1325.7
2018-Feb-18 12:31N 67°08' E 013°58'1325.9
2018-Feb-18 12:01N 67°17' E 014°22'0 0.0
2018-Feb-18 11:30N 67°17' E 014°22'0 0.0
2018-Feb-18 11:00N 67°17' E 014°22'0 0.0
2018-Feb-18 10:30N 67°17' E 014°22'0 0.0
2018-Feb-18 10:00N 67°17' E 014°22'0 0.0
2018-Feb-18 09:30N 67°17' E 014°22'0 0.0
2018-Feb-18 09:00N 67°17' E 014°22'0 0.0
2018-Feb-18 08:30N 67°17' E 014°22'0 0.0
2018-Feb-18 08:00N 67°17' E 014°22'0 0.0
2018-Feb-18 07:30N 67°17' E 014°22'0 0.0
2018-Feb-18 07:00N 67°17' E 014°22'0 0.0
2018-Feb-18 06:30N 67°17' E 014°22'0 0.0
2018-Feb-18 06:00N 67°17' E 014°22'0 0.0
2018-Feb-18 05:30N 67°17' E 014°22'0 0.0
2018-Feb-18 05:00N 67°17' E 014°22'0 0.0
2018-Feb-18 04:30N 67°17' E 014°22'0 0.0
2018-Feb-18 04:00N 67°17' E 014°22'0 0.0
2018-Feb-18 03:30N 67°17' E 014°22'0 0.0
2018-Feb-18 03:00N 67°17' E 014°22'0 0.0
2018-Feb-18 02:30N 67°17' E 014°22'0 0.0
2018-Feb-18 02:00N 67°17' E 014°22'0 0.0
2018-Feb-18 01:30N 67°17' E 014°22'0 0.0
2018-Feb-18 01:00N 67°17' E 014°22'0 0.0
2018-Feb-18 00:30N 67°17' E 014°22'0 0.0
2018-Feb-18 00:00N 67°17' E 014°22'0 0.0
2018-Feb-17 23:30N 67°17' E 014°22'0 0.0
2018-Feb-17 23:00N 67°17' E 014°22'0 0.0
2018-Feb-17 22:30N 67°17' E 014°22'0 0.0
2018-Feb-17 22:00N 67°17' E 014°22'0 0.0
2018-Feb-17 21:30N 67°17' E 014°22'0 0.0
2018-Feb-17 21:00N 67°17' E 014°22'0 0.0
2018-Feb-17 20:30N 67°17' E 014°22'0 0.0
2018-Feb-17 20:00N 67°17' E 014°22'0 0.0
2018-Feb-17 19:30N 67°17' E 014°22'0 0.0
2018-Feb-17 19:00N 67°17' E 014°22'0 0.0
2018-Feb-17 18:30N 67°17' E 014°22'0 0.0
2018-Feb-17 18:00N 67°17' E 014°22'0 0.0
2018-Feb-17 17:30N 67°17' E 014°22'0 0.0
2018-Feb-17 17:00N 67°17' E 014°22'0 0.0
2018-Feb-17 16:30N 67°17' E 014°22'0 0.0
2018-Feb-17 16:00N 67°17' E 014°22'0 0.0
2018-Feb-17 15:30N 67°17' E 014°22'0 0.0
2018-Feb-17 15:00N 67°17' E 014°22'0 0.0
2018-Feb-17 14:30N 67°17' E 014°22'0 0.0
2018-Feb-17 14:00N 67°17' E 014°22'0 0.0
2018-Feb-17 13:30N 67°17' E 014°22'0 0.0
2018-Feb-17 13:00N 67°17' E 014°22'0 0.0
2018-Feb-17 12:30N 67°17' E 014°22'0 0.0
2018-Feb-17 12:00N 67°17' E 014°22'0 0.0
2018-Feb-17 11:30N 67°17' E 014°22'0 0.1
2018-Feb-17 11:01N 67°17' E 014°22'1121.2
2018-Feb-17 10:31N 67°10' E 014°03'815.3
2018-Feb-17 10:00N 67°03' E 013°52'2014.6
2018-Feb-17 08:40N 66°48' E 013°20'617.7
2018-Feb-17 08:19N 66°43' E 013°13'514.2
2018-Feb-17 07:59N 66°39' E 013°06'714.5
2018-Feb-17 07:30N 66°33' E 012°57'1020.2
2018-Feb-17 07:00N 66°24' E 012°48'1221.1
2018-Feb-17 06:26N 66°12' E 012°59'8 0.8
2018-Feb-16 20:37N 66°07' E 012°45'431.1
2018-Feb-16 20:30N 66°09' E 012°52'815.9
2018-Feb-16 20:00N 66°17' E 012°56'814.9
2018-Feb-16 19:30N 66°24' E 012°49'712.8
2018-Feb-16 18:58N 66°29' E 012°58'815.2
2018-Feb-16 18:26N 66°37' E 012°59'915.2
2018-Feb-16 17:52N 66°43' E 013°17'1311.3
2018-Feb-16 16:41N 66°55' E 013°30'2 7.5
2018-Feb-16 16:27N 66°56' E 013°27'1124.5
2018-Feb-16 16:00N 67°03' E 013°49'1325.4
2018-Feb-16 15:30N 67°13' E 014°10'612.8
2018-Feb-16 15:00N 67°17' E 014°22'1 1.2
2018-Feb-16 14:30N 67°17' E 014°24'1 1.2
2018-Feb-16 13:59N 67°17' E 014°22'0 0.0
2018-Feb-16 13:29N 67°17' E 014°22'0 0.0
2018-Feb-16 12:59N 67°17' E 014°22'0 0.0
2018-Feb-16 12:29N 67°17' E 014°22'0 0.0
2018-Feb-16 11:59N 67°17' E 014°22'0 0.0
2018-Feb-16 11:29N 67°17' E 014°22'0 0.8
2018-Feb-16 11:00N 67°17' E 014°23'816.2
2018-Feb-16 10:31N 67°12' E 014°08'1223.4
2018-Feb-16 10:00N 67°03' E 013°47'1813.6
2018-Feb-16 08:39N 66°48' E 013°20'618.5
2018-Feb-16 08:20N 66°43' E 013°13'514.2
2018-Feb-16 08:00N 66°39' E 013°06'713.6
2018-Feb-16 07:29N 66°33' E 012°57'715.6
2018-Feb-16 07:01N 66°27' E 012°48'1121.6
2018-Feb-16 06:29N 66°15' E 012°54'917.9
2018-Feb-16 05:59N 66°07' E 012°47'1 0.1
2018-Feb-15 20:26N 66°07' E 012°45'1021.0
2018-Feb-15 19:56N 66°16' E 012°56'716.2
2018-Feb-15 19:30N 66°22' E 012°49'815.8
2018-Feb-15 19:00N 66°29' E 012°58'814.6
2018-Feb-15 18:26N 66°38' E 012°60'816.3
2018-Feb-15 17:55N 66°43' E 013°17'1311.2
2018-Feb-15 16:43N 66°55' E 013°29'1 7.1
2018-Feb-15 16:31N 66°56' E 013°28'1631.0
2018-Feb-15 16:00N 67°07' E 013°57'815.9
2018-Feb-15 15:31N 67°13' E 014°10'612.4
2018-Feb-15 15:00N 67°17' E 014°22'0 0.0
2018-Feb-15 14:29N 67°17' E 014°22'  
Track history (hours):
 
Tides and Currents Weather Stations Pressure Air Temp Water Temp Dewpoint Dewpoint Depression Visibility Wind Speed Wind Dir Waves Ship Positions

Fjordprinsessen

Last reported at 2018-Feb-25 14:20 UTC. Time now 2018-Feb-25 15:16 UTC.
Position N 66°54' E 013°32'.

Length 30 m; draft 2 m.

Type: High speed craft. MMSI: 259604000.

Date/timePositionNaut miles runAvg speedWind from/ knotsBaromVisibWave heightAir tempDewpointWater temp
2018-Feb-25 14:20N 66°54' E 013°32'411.2
2018-Feb-25 14:00N 66°57' E 013°29'1631.8
2018-Feb-25 13:31N 67°08' E 013°58'1325.5
2018-Feb-25 13:00N 67°17' E 014°21'0 0.7
2018-Feb-25 12:29N 67°17' E 014°22'0 0.0
2018-Feb-25 11:59N 67°17' E 014°22'0 0.0
2018-Feb-25 11:29N 67°17' E 014°22'0 0.0
2018-Feb-25 10:59N 67°17' E 014°22'0 0.0
2018-Feb-25 10:29N 67°17' E 014°22'0 0.0
2018-Feb-25 09:59N 67°17' E 014°22'0 0.0
2018-Feb-25 09:29N 67°17' E 014°22'0 0.0
2018-Feb-25 08:59N 67°17' E 014°22'0 0.0
2018-Feb-25 08:29N 67°17' E 014°22'0 0.0
2018-Feb-25 07:59N 67°17' E 014°22'0 0.0
2018-Feb-25 07:29N 67°17' E 014°22'0 0.0
2018-Feb-25 06:59N 67°17' E 014°22'0 0.0
2018-Feb-25 06:29N 67°17' E 014°22'0 0.0
2018-Feb-25 05:59N 67°17' E 014°22'0 0.0
2018-Feb-25 05:29N 67°17' E 014°22'0 0.0
2018-Feb-25 04:59N 67°17' E 014°22'0 0.0
2018-Feb-25 04:29N 67°17' E 014°22'0 0.0
2018-Feb-25 03:59N 67°17' E 014°22'0 0.0
2018-Feb-25 03:29N 67°17' E 014°22'0 0.0
2018-Feb-25 02:59N 67°17' E 014°22'0 0.0
2018-Feb-25 02:29N 67°17' E 014°22'0 0.0
2018-Feb-25 01:59N 67°17' E 014°22'0 0.0
2018-Feb-25 01:29N 67°17' E 014°22'0 0.0
2018-Feb-25 00:59N 67°17' E 014°22'0 0.0
2018-Feb-25 00:29N 67°17' E 014°22'0 0.0
2018-Feb-24 23:59N 67°17' E 014°22'0 0.0
2018-Feb-24 23:29N 67°17' E 014°22'0 0.0
2018-Feb-24 22:59N 67°17' E 014°22'0 0.0
2018-Feb-24 22:29N 67°17' E 014°22'0 0.0
2018-Feb-24 21:59N 67°17' E 014°22'0 0.0
2018-Feb-24 21:29N 67°17' E 014°22'0 0.0
2018-Feb-24 20:59N 67°17' E 014°22'0 0.0
2018-Feb-24 20:29N 67°17' E 014°22'0 0.0
2018-Feb-24 19:59N 67°17' E 014°22'0 0.0
2018-Feb-24 19:29N 67°17' E 014°22'0 0.0
2018-Feb-24 18:56N 67°17' E 014°22'0 0.0
2018-Feb-24 18:29N 67°17' E 014°22'0 0.0
2018-Feb-24 17:59N 67°17' E 014°22'0 0.0
2018-Feb-24 17:29N 67°17' E 014°22'2 4.2
2018-Feb-24 17:00N 67°19' E 014°21'1223.4
2018-Feb-24 16:31N 67°24' E 013°54'714.7
2018-Feb-24 16:00N 67°24' E 014°13'815.3
2018-Feb-24 15:30N 67°17' E 014°22'713.3
2018-Feb-24 15:00N 67°14' E 014°07'917.7
2018-Feb-24 14:30N 67°10' E 013°47'713.6
2018-Feb-24 14:00N 67°07' E 014°03'1020.6
2018-Feb-24 13:30N 67°16' E 014°18'2 4.1
2018-Feb-24 13:00N 67°17' E 014°22'0 0.0
2018-Feb-24 12:30N 67°17' E 014°22'0 0.0
2018-Feb-24 12:00N 67°17' E 014°22'0 0.0
2018-Feb-24 11:30N 67°17' E 014°22'0 0.0
2018-Feb-24 11:00N 67°17' E 014°22'0 0.0
2018-Feb-24 10:30N 67°17' E 014°22'815.3
2018-Feb-24 10:00N 67°24' E 014°13'713.5
2018-Feb-24 09:28N 67°24' E 013°54'716.0
2018-Feb-24 09:00N 67°18' E 013°43'1223.9
2018-Feb-24 08:31N 67°17' E 014°14'3 6.1
2018-Feb-24 08:00N 67°14' E 014°13'816.4
2018-Feb-24 07:30N 67°08' E 013°58'5 9.7
2018-Feb-24 07:00N 67°10' E 013°48'1428.1
2018-Feb-24 06:31N 67°17' E 014°20'1 2.0
2018-Feb-24 06:00N 67°17' E 014°22'0 0.0
2018-Feb-24 05:30N 67°17' E 014°22'0 0.0
2018-Feb-24 05:00N 67°17' E 014°22'0 0.0
2018-Feb-24 04:30N 67°17' E 014°22'0 0.0
2018-Feb-24 04:00N 67°17' E 014°22'0 0.0
2018-Feb-24 03:30N 67°17' E 014°22'0 0.0
2018-Feb-24 03:00N 67°17' E 014°22'0 0.0
2018-Feb-24 02:30N 67°17' E 014°22'0 0.0
2018-Feb-24 02:00N 67°17' E 014°22'0 0.0
2018-Feb-24 01:30N 67°17' E 014°22'0 0.0
2018-Feb-24 01:00N 67°17' E 014°22'0 0.0
2018-Feb-24 00:30N 67°17' E 014°22'0 0.0
2018-Feb-24 00:00N 67°17' E 014°22'0 0.0
2018-Feb-23 23:30N 67°17' E 014°22'0 0.0
2018-Feb-23 23:00N 67°17' E 014°22'0 0.0
2018-Feb-23 22:30N 67°17' E 014°22'0 0.0
2018-Feb-23 22:00N 67°17' E 014°22'0 0.0
2018-Feb-23 21:30N 67°17' E 014°22'0 0.0
2018-Feb-23 21:00N 67°17' E 014°22'0 0.0
2018-Feb-23 20:30N 67°17' E 014°22'0 0.0
2018-Feb-23 20:00N 67°17' E 014°22'0 0.0
2018-Feb-23 19:30N 67°17' E 014°22'0 0.0
2018-Feb-23 19:00N 67°17' E 014°22'0 0.0
2018-Feb-23 18:30N 67°17' E 014°22'0 0.0
2018-Feb-23 18:00N 67°17' E 014°22'0 0.0
2018-Feb-23 17:30N 67°17' E 014°22'1 1.7
2018-Feb-23 17:00N 67°17' E 014°20'1427.3
2018-Feb-23 16:30N 67°19' E 013°45'713.2
2018-Feb-23 16:00N 67°24' E 013°54'713.8
2018-Feb-23 15:30N 67°24' E 014°12'816.5
2018-Feb-23 15:00N 67°17' E 014°22'0 0.0
2018-Feb-23 14:30N 67°17' E 014°22'0 0.0
2018-Feb-23 14:00N 67°17' E 014°22'713.6
2018-Feb-23 13:31N 67°23' E 014°13'714.8
2018-Feb-23 13:00N 67°24' E 013°54'816.0
2018-Feb-23 12:30N 67°23' E 014°15'713.9
2018-Feb-23 12:00N 67°17' E 014°22'0 0.1
2018-Feb-23 11:30N 67°17' E 014°22'0 0.8
2018-Feb-23 11:00N 67°17' E 014°23'0 0.7
2018-Feb-23 10:28N 67°17' E 014°22'0 0.0
2018-Feb-23 09:58N 67°17' E 014°22'0 0.0
2018-Feb-23 09:28N 67°17' E 014°22'0 0.0
2018-Feb-23 08:58N 67°17' E 014°22'0 0.0
2018-Feb-23 08:28N 67°17' E 014°22'0 0.0
2018-Feb-23 07:58N 67°17' E 014°22'0 0.0
2018-Feb-23 07:28N 67°17' E 014°22'0 0.0
2018-Feb-23 06:58N 67°17' E 014°22'0 0.0
2018-Feb-23 06:28N 67°17' E 014°22'1 1.1
2018-Feb-23 06:00N 67°17' E 014°21'1223.8
2018-Feb-23 05:30N 67°07' E 014°03'3 6.6
2018-Feb-23 05:01N 67°11' E 014°05'918.7
2018-Feb-23 04:30N 67°17' E 014°22'0 0.0
2018-Feb-23 04:00N 67°17' E 014°22'0 0.0
2018-Feb-23 03:30N 67°17' E 014°22'0 0.0
2018-Feb-23 03:00N 67°17' E 014°22'0 0.0
2018-Feb-23 02:30N 67°17' E 014°22'0 0.0
2018-Feb-23 02:01N 67°17' E 014°22'0 0.0
2018-Feb-23 01:30N 67°17' E 014°22'0 0.0
2018-Feb-23 01:00N 67°17' E 014°22'0 0.0
2018-Feb-23 00:30N 67°17' E 014°22'0 0.0
2018-Feb-23 00:01N 67°17' E 014°22'0 0.0
2018-Feb-22 23:30N 67°17' E 014°22'0 0.0
2018-Feb-22 23:00N 67°17' E 014°22'0 0.0
2018-Feb-22 22:30N 67°17' E 014°22'0 0.0
2018-Feb-22 22:01N 67°17' E 014°22'0 0.0
2018-Feb-22 21:30N 67°17' E 014°22'0 0.0
2018-Feb-22 21:00N 67°17' E 014°22'1021.0
2018-Feb-22 20:30N 67°12' E 013°59'4 8.2
2018-Feb-22 20:00N 67°09' E 013°52'4 8.0
2018-Feb-22 19:31N 67°07' E 014°02'1224.8
2018-Feb-22 19:01N 67°17' E 014°22'0 0.0
2018-Feb-22 18:28N 67°17' E 014°22'0 0.0
2018-Feb-22 17:58N 67°17' E 014°22'0 0.4
2018-Feb-22 17:30N 67°17' E 014°23'5 9.1
2018-Feb-22 17:00N 67°21' E 014°28'  
2018-Feb-20 07:04N 67°36' E 014°37'228.3
2018-Feb-20 07:00N 67°34' E 014°35'1428.3
2018-Feb-20 06:31N 67°21' E 014°24'4 8.3
2018-Feb-20 06:01N 67°17' E 014°21'1224.1
2018-Feb-20 05:30N 67°07' E 014°03'5 9.7
2018-Feb-20 05:01N 67°12' E 014°08'815.4
2018-Feb-20 04:30N 67°17' E 014°22'0 0.0
2018-Feb-20 03:59N 67°17' E 014°22'0 0.0
2018-Feb-20 03:29N 67°17' E 014°22'0 0.0
2018-Feb-20 02:59N 67°17' E 014°22'0 0.0
2018-Feb-20 02:29N 67°17' E 014°22'0 0.0
2018-Feb-20 01:59N 67°17' E 014°22'0 0.0
2018-Feb-20 01:29N 67°17' E 014°22'0 0.0
2018-Feb-20 00:59N 67°17' E 014°22'0 0.0
2018-Feb-20 00:29N 67°17' E 014°22'0 0.0
2018-Feb-19 23:59N 67°17' E 014°22'0 0.0
2018-Feb-19 23:29N 67°17' E 014°22'0 0.0
2018-Feb-19 22:59N 67°17' E 014°22'0 0.0
2018-Feb-19 22:29N 67°17' E 014°22'0 0.0
2018-Feb-19 21:59N 67°17' E 014°22'0 0.0
2018-Feb-19 21:29N 67°17' E 014°22'0 0.0
2018-Feb-19 20:59N 67°17' E 014°22'0 0.0
2018-Feb-19 20:29N 67°17' E 014°22'0 0.0
2018-Feb-19 19:59N 67°17' E 014°22'0 0.0
2018-Feb-19 19:29N 67°17' E 014°22'0 0.0
2018-Feb-19 18:59N 67°17' E 014°22'0 0.0
2018-Feb-19 18:29N 67°17' E 014°22'0 0.0
2018-Feb-19 17:59N 67°17' E 014°22'0 0.0
2018-Feb-19 17:29N 67°17' E 014°22'2 4.5
2018-Feb-19 17:00N 67°17' E 014°17'1020.1
2018-Feb-19 16:30N 67°13' E 013°52'510.4
2018-Feb-19 16:01N 67°08' E 013°50'5 9.1
2018-Feb-19 15:31N 67°08' E 014°02'1224.2
2018-Feb-19 15:00N 67°17' E 014°22'0 0.0
2018-Feb-19 14:28N 67°17' E 014°22'0 0.9
2018-Feb-19 14:01N 67°17' E 014°23'0 0.8
2018-Feb-19 13:30N 67°17' E 014°22'0 0.0
2018-Feb-19 13:00N 67°17' E 014°22'0 0.0
2018-Feb-19 12:30N 67°17' E 014°22'0 0.0
2018-Feb-19 12:00N 67°17' E 014°22'0 0.0
2018-Feb-19 11:30N 67°17' E 014°22'0 0.0
2018-Feb-19 11:00N 67°17' E 014°22'2 4.9
2018-Feb-19 10:31N 67°16' E 014°17'1224.1
2018-Feb-19 10:00N 67°06' E 013°57'2916.6
2018-Feb-19 08:14N 66°43' E 013°12'311.0
2018-Feb-19 07:56N 66°40' E 013°08'815.3
2018-Feb-19 07:25N 66°33' E 012°58'716.4
2018-Feb-19 07:00N 66°27' E 012°50'1020.2
2018-Feb-19 06:31N 66°17' E 012°54'1018.7
2018-Feb-19 05:58N 66°07' E 012°47'1 0.1
2018-Feb-18 19:50N 66°07' E 012°45'823.1
2018-Feb-18 19:28N 66°12' E 013°00'12 4.9
2018-Feb-18 17:02N 66°04' E 012°39'428.6
2018-Feb-18 16:55N 66°06' E 012°45'1019.3
2018-Feb-18 16:24N 66°16' E 012°55'818.6
2018-Feb-18 15:57N 66°24' E 012°50'818.0
2018-Feb-18 15:30N 66°31' E 013°00'815.4
2018-Feb-18 14:58N 66°39' E 013°02'612.4
2018-Feb-18 14:28N 66°43' E 013°15'1510.9
2018-Feb-18 13:08N 66°56' E 013°27'430.5
2018-Feb-18 13:00N 66°59' E 013°35'1325.7
2018-Feb-18 12:31N 67°08' E 013°58'1325.9
2018-Feb-18 12:01N 67°17' E 014°22'0 0.0
2018-Feb-18 11:30N 67°17' E 014°22'0 0.0
2018-Feb-18 11:00N 67°17' E 014°22'0 0.0
2018-Feb-18 10:30N 67°17' E 014°22'0 0.0
2018-Feb-18 10:00N 67°17' E 014°22'0 0.0
2018-Feb-18 09:30N 67°17' E 014°22'0 0.0
2018-Feb-18 09:00N 67°17' E 014°22'0 0.0
2018-Feb-18 08:30N 67°17' E 014°22'0 0.0
2018-Feb-18 08:00N 67°17' E 014°22'0 0.0
2018-Feb-18 07:30N 67°17' E 014°22'0 0.0
2018-Feb-18 07:00N 67°17' E 014°22'0 0.0
2018-Feb-18 06:30N 67°17' E 014°22'0 0.0
2018-Feb-18 06:00N 67°17' E 014°22'0 0.0
2018-Feb-18 05:30N 67°17' E 014°22'0 0.0
2018-Feb-18 05:00N 67°17' E 014°22'0 0.0
2018-Feb-18 04:30N 67°17' E 014°22'0 0.0
2018-Feb-18 04:00N 67°17' E 014°22'0 0.0
2018-Feb-18 03:30N 67°17' E 014°22'0 0.0
2018-Feb-18 03:00N 67°17' E 014°22'0 0.0
2018-Feb-18 02:30N 67°17' E 014°22'0 0.0
2018-Feb-18 02:00N 67°17' E 014°22'0 0.0
2018-Feb-18 01:30N 67°17' E 014°22'0 0.0
2018-Feb-18 01:00N 67°17' E 014°22'0 0.0
2018-Feb-18 00:30N 67°17' E 014°22'0 0.0
2018-Feb-18 00:00N 67°17' E 014°22'0 0.0
2018-Feb-17 23:30N 67°17' E 014°22'0 0.0
2018-Feb-17 23:00N 67°17' E 014°22'0 0.0
2018-Feb-17 22:30N 67°17' E 014°22'0 0.0
2018-Feb-17 22:00N 67°17' E 014°22'0 0.0
2018-Feb-17 21:30N 67°17' E 014°22'0 0.0
2018-Feb-17 21:00N 67°17' E 014°22'0 0.0
2018-Feb-17 20:30N 67°17' E 014°22'0 0.0
2018-Feb-17 20:00N 67°17' E 014°22'0 0.0
2018-Feb-17 19:30N 67°17' E 014°22'0 0.0
2018-Feb-17 19:00N 67°17' E 014°22'0 0.0
2018-Feb-17 18:30N 67°17' E 014°22'0 0.0
2018-Feb-17 18:00N 67°17' E 014°22'0 0.0
2018-Feb-17 17:30N 67°17' E 014°22'0 0.0
2018-Feb-17 17:00N 67°17' E 014°22'0 0.0
2018-Feb-17 16:30N 67°17' E 014°22'0 0.0
2018-Feb-17 16:00N 67°17' E 014°22'0 0.0
2018-Feb-17 15:30N 67°17' E 014°22'0 0.0
2018-Feb-17 15:00N 67°17' E 014°22'0 0.0
2018-Feb-17 14:30N 67°17' E 014°22'0 0.0
2018-Feb-17 14:00N 67°17' E 014°22'0 0.0
2018-Feb-17 13:30N 67°17' E 014°22'0 0.0
2018-Feb-17 13:00N 67°17' E 014°22'0 0.0
2018-Feb-17 12:30N 67°17' E 014°22'0 0.0
2018-Feb-17 12:00N 67°17' E 014°22'0 0.0
2018-Feb-17 11:30N 67°17' E 014°22'0 0.1
2018-Feb-17 11:01N 67°17' E 014°22'1121.2
2018-Feb-17 10:31N 67°10' E 014°03'815.3
2018-Feb-17 10:00N 67°03' E 013°52'2014.6
2018-Feb-17 08:40N 66°48' E 013°20'617.7
2018-Feb-17 08:19N 66°43' E 013°13'514.2
2018-Feb-17 07:59N 66°39' E 013°06'714.5
2018-Feb-17 07:30N 66°33' E 012°57'1020.2
2018-Feb-17 07:00N 66°24' E 012°48'1221.1
2018-Feb-17 06:26N 66°12' E 012°59'8 0.8
2018-Feb-16 20:37N 66°07' E 012°45'431.1
2018-Feb-16 20:30N 66°09' E 012°52'815.9
2018-Feb-16 20:00N 66°17' E 012°56'814.9
2018-Feb-16 19:30N 66°24' E 012°49'712.8
2018-Feb-16 18:58N 66°29' E 012°58'815.2
2018-Feb-16 18:26N 66°37' E 012°59'915.2
2018-Feb-16 17:52N 66°43' E 013°17'1311.3
2018-Feb-16 16:41N 66°55' E 013°30'2 7.5
2018-Feb-16 16:27N 66°56' E 013°27'1124.5
2018-Feb-16 16:00N 67°03' E 013°49'1325.4
2018-Feb-16 15:30N 67°13' E 014°10'612.8
2018-Feb-16 15:00N 67°17' E 014°22'1 1.2
2018-Feb-16 14:30N 67°17' E 014°24'1 1.2
2018-Feb-16 13:59N 67°17' E 014°22'0 0.0
2018-Feb-16 13:29N 67°17' E 014°22'0 0.0
2018-Feb-16 12:59N 67°17' E 014°22'0 0.0
2018-Feb-16 12:29N 67°17' E 014°22'0 0.0
2018-Feb-16 11:59N 67°17' E 014°22'0 0.0
2018-Feb-16 11:29N 67°17' E 014°22'0 0.8
2018-Feb-16 11:00N 67°17' E 014°23'816.2
2018-Feb-16 10:31N 67°12' E 014°08'1223.4
2018-Feb-16 10:00N 67°03' E 013°47'1813.6
2018-Feb-16 08:39N 66°48' E 013°20'618.5
2018-Feb-16 08:20N 66°43' E 013°13'514.2
2018-Feb-16 08:00N 66°39' E 013°06'713.6
2018-Feb-16 07:29N 66°33' E 012°57'715.6
2018-Feb-16 07:01N 66°27' E 012°48'1121.6
2018-Feb-16 06:29N 66°15' E 012°54'917.9
2018-Feb-16 05:59N 66°07' E 012°47'1 0.1
2018-Feb-15 20:26N 66°07' E 012°45'1021.0
2018-Feb-15 19:56N 66°16' E 012°56'716.2
2018-Feb-15 19:30N 66°22' E 012°49'815.8
2018-Feb-15 19:00N 66°29' E 012°58'814.6
2018-Feb-15 18:26N 66°38' E 012°60'816.3
2018-Feb-15 17:55N 66°43' E 013°17'1311.2
2018-Feb-15 16:43N 66°55' E 013°29'1 7.1
2018-Feb-15 16:31N 66°56' E 013°28'1631.0
2018-Feb-15 16:00N 67°07' E 013°57'815.9
2018-Feb-15 15:31N 67°13' E 014°10'612.4
2018-Feb-15 15:00N 67°17' E 014°22'0 0.0
2018-Feb-15 14:29N 67°17' E 014°22'  

Dump ship's entire track history